sensor_id;sensor_type;location;lat;lon;timestamp;pressure;altitude;pressure_sealevel;temperature;humidity
64616;BME280;51027;42.162;24.754;2023-02-12T00:00:31;100812.34;;;0.80;47.12
64616;BME280;51027;42.162;24.754;2023-02-12T00:02:57;100798.38;;;0.72;47.38
64616;BME280;51027;42.162;24.754;2023-02-12T00:05:22;100794.66;;;0.60;47.94
64616;BME280;51027;42.162;24.754;2023-02-12T00:07:48;100783.34;;;0.54;47.82
64616;BME280;51027;42.162;24.754;2023-02-12T00:10:13;100785.44;;;0.74;47.37
64616;BME280;51027;42.162;24.754;2023-02-12T00:12:38;100708.03;;;0.47;46.87
64616;BME280;51027;42.162;24.754;2023-02-12T00:15:04;100784.81;;;0.89;46.52
64616;BME280;51027;42.162;24.754;2023-02-12T00:17:30;100785.50;;;0.78;46.55
64616;BME280;51027;42.162;24.754;2023-02-12T00:19:55;100788.28;;;0.88;46.20
64616;BME280;51027;42.162;24.754;2023-02-12T00:22:21;100788.09;;;0.77;46.53
64616;BME280;51027;42.162;24.754;2023-02-12T00:24:46;100782.66;;;0.63;46.71
64616;BME280;51027;42.162;24.754;2023-02-12T00:27:12;100785.38;;;0.71;47.17
64616;BME280;51027;42.162;24.754;2023-02-12T00:29:37;100781.81;;;0.64;47.36
64616;BME280;51027;42.162;24.754;2023-02-12T00:32:03;100769.88;;;0.74;47.48
64616;BME280;51027;42.162;24.754;2023-02-12T00:34:28;100767.81;;;0.54;47.81
64616;BME280;51027;42.162;24.754;2023-02-12T00:36:53;100768.22;;;0.77;47.61
64616;BME280;51027;42.162;24.754;2023-02-12T00:39:19;100754.69;;;0.47;47.88
64616;BME280;51027;42.162;24.754;2023-02-12T00:41:44;100734.97;;;0.55;47.82
64616;BME280;51027;42.162;24.754;2023-02-12T00:44:09;100743.78;;;0.63;47.94
64616;BME280;51027;42.162;24.754;2023-02-12T00:46:35;100748.19;;;0.69;48.11
64616;BME280;51027;42.162;24.754;2023-02-12T00:49:00;100740.84;;;0.45;48.44
64616;BME280;51027;42.162;24.754;2023-02-12T00:51:26;100718.41;;;0.47;48.13
64616;BME280;51027;42.162;24.754;2023-02-12T00:53:51;100732.69;;;0.72;47.92
64616;BME280;51027;42.162;24.754;2023-02-12T00:56:17;100729.31;;;0.77;47.27
64616;BME280;51027;42.162;24.754;2023-02-12T00:58:42;100709.56;;;0.84;46.48
64616;BME280;51027;42.162;24.754;2023-02-12T01:01:07;100728.78;;;0.97;46.22
64616;BME280;51027;42.162;24.754;2023-02-12T01:03:33;100723.88;;;1.15;45.30
64616;BME280;51027;42.162;24.754;2023-02-12T01:05:59;100710.97;;;1.20;44.72
64616;BME280;51027;42.162;24.754;2023-02-12T01:08:24;100716.56;;;1.46;43.77
64616;BME280;51027;42.162;24.754;2023-02-12T01:10:55;100719.19;;;1.49;43.59
64616;BME280;51027;42.162;24.754;2023-02-12T01:13:21;100702.72;;;1.45;43.36
64616;BME280;51027;42.162;24.754;2023-02-12T01:15:47;100696.69;;;1.49;42.84
64616;BME280;51027;42.162;24.754;2023-02-12T01:18:12;100684.72;;;1.59;42.07
64616;BME280;51027;42.162;24.754;2023-02-12T01:20:40;100700.53;;;1.79;41.51
64616;BME280;51027;42.162;24.754;2023-02-12T01:23:05;100692.88;;;1.89;41.22
64616;BME280;51027;42.162;24.754;2023-02-12T01:25:32;100714.63;;;1.97;41.18
64616;BME280;51027;42.162;24.754;2023-02-12T01:27:58;100705.09;;;1.95;41.26
64616;BME280;51027;42.162;24.754;2023-02-12T01:30:23;100658.03;;;1.72;41.29
64616;BME280;51027;42.162;24.754;2023-02-12T01:32:49;100706.97;;;2.08;40.97
64616;BME280;51027;42.162;24.754;2023-02-12T01:35:14;100700.13;;;2.15;41.18
64616;BME280;51027;42.162;24.754;2023-02-12T01:37:40;100695.91;;;2.26;40.65
64616;BME280;51027;42.162;24.754;2023-02-12T01:40:07;100697.72;;;2.35;40.33
64616;BME280;51027;42.162;24.754;2023-02-12T01:42:33;100687.41;;;2.44;39.77
64616;BME280;51027;42.162;24.754;2023-02-12T01:47:38;100672.63;;;2.37;39.59
64616;BME280;51027;42.162;24.754;2023-02-12T01:50:05;100690.06;;;2.50;39.80
64616;BME280;51027;42.162;24.754;2023-02-12T01:52:33;100692.69;;;2.54;39.82
64616;BME280;51027;42.162;24.754;2023-02-12T01:55:03;100682.28;;;2.50;39.92
64616;BME280;51027;42.162;24.754;2023-02-12T01:57:33;100682.44;;;2.67;39.13
64616;BME280;51027;42.162;24.754;2023-02-12T02:00:01;100689.22;;;2.54;39.44
64616;BME280;51027;42.162;24.754;2023-02-12T02:02:27;100690.06;;;2.50;39.88
64616;BME280;51027;42.162;24.754;2023-02-12T02:04:59;100687.38;;;2.39;40.09
64616;BME280;51027;42.162;24.754;2023-02-12T02:07:25;100684.78;;;2.39;40.16
64616;BME280;51027;42.162;24.754;2023-02-12T02:09:51;100687.31;;;2.35;40.33
64616;BME280;51027;42.162;24.754;2023-02-12T02:12:17;100657.63;;;2.13;40.41
64616;BME280;51027;42.162;24.754;2023-02-12T02:15:02;100673.28;;;2.17;40.75
64616;BME280;51027;42.162;24.754;2023-02-12T02:28:52;100689.66;;;2.09;40.13
64616;BME280;51027;42.162;24.754;2023-02-12T02:31:31;100682.69;;;2.05;39.74
64616;BME280;51027;42.162;24.754;2023-02-12T02:34:23;100694.75;;;2.02;39.99
64616;BME280;51027;42.162;24.754;2023-02-12T02:37:03;100678.41;;;2.13;40.32
64616;BME280;51027;42.162;24.754;2023-02-12T02:39:52;100695.84;;;2.20;40.47
64616;BME280;51027;42.162;24.754;2023-02-12T02:42:36;100690.63;;;2.18;41.01
64616;BME280;51027;42.162;24.754;2023-02-12T02:47:44;100699.50;;;2.40;40.88
64616;BME280;51027;42.162;24.754;2023-02-12T02:50:13;100693.47;;;2.44;41.13
64616;BME280;51027;42.162;24.754;2023-02-12T02:52:50;100694.41;;;2.51;40.91
64616;BME280;51027;42.162;24.754;2023-02-12T02:55:19;100697.88;;;2.48;41.23
64616;BME280;51027;42.162;24.754;2023-02-12T02:57:50;100697.06;;;2.55;41.09
64616;BME280;51027;42.162;24.754;2023-02-12T03:00:19;100693.56;;;2.53;41.12
64616;BME280;51027;42.162;24.754;2023-02-12T03:02:50;100693.56;;;2.52;41.62
64616;BME280;51027;42.162;24.754;2023-02-12T03:05:31;100691.84;;;2.54;41.29
64616;BME280;51027;42.162;24.754;2023-02-12T03:08:11;100666.59;;;2.41;41.32
64616;BME280;51027;42.162;24.754;2023-02-12T03:10:46;100708.31;;;2.54;41.65
64616;BME280;51027;42.162;24.754;2023-02-12T03:13:19;100698.75;;;2.50;41.87
64616;BME280;51027;42.162;24.754;2023-02-12T03:15:53;100702.28;;;2.55;41.72
64616;BME280;51027;42.162;24.754;2023-02-12T03:18:25;100700.44;;;2.45;41.88
64616;BME280;51027;42.162;24.754;2023-02-12T03:21:01;100697.00;;;2.51;42.12
64616;BME280;51027;42.162;24.754;2023-02-12T03:23:37;100699.53;;;2.45;41.93
64616;BME280;51027;42.162;24.754;2023-02-12T03:26:06;100706.44;;;2.41;42.21
64616;BME280;51027;42.162;24.754;2023-02-12T03:28:35;100704.34;;;2.07;43.00
64616;BME280;51027;42.162;24.754;2023-02-12T03:31:13;100704.34;;;2.07;43.05
64616;BME280;51027;42.162;24.754;2023-02-12T03:36:50;100705.03;;;1.93;43.19
64616;BME280;51027;42.162;24.754;2023-02-12T03:50:05;100693.72;;;1.85;42.65
64616;BME280;51027;42.162;24.754;2023-02-12T03:52:34;100693.63;;;1.79;42.76
64616;BME280;51027;42.162;24.754;2023-02-12T03:55:00;100659.63;;;1.61;42.81
64616;BME280;51027;42.162;24.754;2023-02-12T03:57:29;100691.06;;;1.82;42.45
64616;BME280;51027;42.162;24.754;2023-02-12T04:00:03;100700.84;;;2.03;42.05
64616;BME280;51027;42.162;24.754;2023-02-12T04:02:29;100689.66;;;2.12;41.58
64616;BME280;51027;42.162;24.754;2023-02-12T04:04:55;100688.91;;;2.19;41.49
64616;BME280;51027;42.162;24.754;2023-02-12T04:07:20;100694.09;;;2.17;41.40
64616;BME280;51027;42.162;24.754;2023-02-12T04:09:46;100690.66;;;2.21;41.71
64616;BME280;51027;42.162;24.754;2023-02-12T04:12:44;100692.44;;;2.27;41.29
64616;BME280;51027;42.162;24.754;2023-02-12T04:15:15;100702.06;;;2.36;41.56
64616;BME280;51027;42.162;24.754;2023-02-12T04:18:06;100702.09;;;2.37;41.86
64616;BME280;51027;42.162;24.754;2023-02-12T04:23:16;100612.53;;;2.05;41.62
64616;BME280;51027;42.162;24.754;2023-02-12T04:30:47;100645.81;;;2.42;41.03
64616;BME280;51027;42.162;24.754;2023-02-12T04:33:21;100713.78;;;2.82;40.83
64616;BME280;51027;42.162;24.754;2023-02-12T04:35:56;100692.06;;;2.80;39.84
64616;BME280;51027;42.162;24.754;2023-02-12T04:38:32;100709.53;;;2.96;39.94
64616;BME280;51027;42.162;24.754;2023-02-12T04:41:00;100692.09;;;2.86;39.83
64616;BME280;51027;42.162;24.754;2023-02-12T04:43:33;100716.53;;;3.02;39.45
64616;BME280;51027;42.162;24.754;2023-02-12T04:46:00;100721.75;;;3.06;39.03
64616;BME280;51027;42.162;24.754;2023-02-12T04:48:25;100719.13;;;3.00;39.16
64616;BME280;51027;42.162;24.754;2023-02-12T04:50:51;100723.56;;;3.13;38.87
64616;BME280;51027;42.162;24.754;2023-02-12T04:53:17;100717.47;;;3.11;38.98
64616;BME280;51027;42.162;24.754;2023-02-12T04:55:43;100711.31;;;3.00;39.22
64616;BME280;51027;42.162;24.754;2023-02-12T04:58:08;100726.91;;;2.97;39.57
64616;BME280;51027;42.162;24.754;2023-02-12T05:00:34;100726.84;;;2.89;39.73
64616;BME280;51027;42.162;24.754;2023-02-12T05:03:00;100725.06;;;2.84;40.15
64616;BME280;51027;42.162;24.754;2023-02-12T05:05:25;100730.25;;;2.81;40.47
64616;BME280;51027;42.162;24.754;2023-02-12T05:07:51;100731.06;;;2.77;40.85
64616;BME280;51027;42.162;24.754;2023-02-12T05:10:17;100701.44;;;2.59;40.88
64616;BME280;51027;42.162;24.754;2023-02-12T05:12:42;100728.38;;;2.68;40.91
64616;BME280;51027;42.162;24.754;2023-02-12T05:15:08;100724.06;;;2.68;40.51
64616;BME280;51027;42.162;24.754;2023-02-12T05:17:34;100729.28;;;2.74;41.28
64616;BME280;51027;42.162;24.754;2023-02-12T05:19:59;100737.09;;;2.76;41.39
64616;BME280;51027;42.162;24.754;2023-02-12T05:22:24;100740.56;;;2.73;41.55
64616;BME280;51027;42.162;24.754;2023-02-12T05:24:50;100742.19;;;2.64;41.64
64616;BME280;51027;42.162;24.754;2023-02-12T05:27:15;100747.31;;;2.54;41.69
64616;BME280;51027;42.162;24.754;2023-02-12T05:29:41;100745.75;;;2.72;41.94
64616;BME280;51027;42.162;24.754;2023-02-12T05:32:07;100733.47;;;2.55;42.06
64616;BME280;51027;42.162;24.754;2023-02-12T05:34:33;100751.78;;;2.66;42.45
64616;BME280;51027;42.162;24.754;2023-02-12T05:36:58;100744.81;;;2.65;42.59
64616;BME280;51027;42.162;24.754;2023-02-12T05:39:24;100758.84;;;2.78;42.83
64616;BME280;51027;42.162;24.754;2023-02-12T05:41:49;100723.97;;;2.60;42.56
64616;BME280;51027;42.162;24.754;2023-02-12T05:44:15;100748.53;;;2.90;42.10
64616;BME280;51027;42.162;24.754;2023-02-12T05:46:41;100754.63;;;2.94;42.16
64616;BME280;51027;42.162;24.754;2023-02-12T05:49:07;100761.63;;;3.01;42.09
64616;BME280;51027;42.162;24.754;2023-02-12T05:51:33;100774.66;;;3.05;41.84
64616;BME280;51027;42.162;24.754;2023-02-12T05:54:01;100768.66;;;3.12;41.34
64616;BME280;51027;42.162;24.754;2023-02-12T05:56:30;100759.13;;;3.13;40.91
64616;BME280;51027;42.162;24.754;2023-02-12T05:59:02;100769.56;;;3.16;40.77
64616;BME280;51027;42.162;24.754;2023-02-12T06:01:30;100780.03;;;3.24;40.63
64616;BME280;51027;42.162;24.754;2023-02-12T06:03:57;100776.63;;;3.29;40.45
64616;BME280;51027;42.162;24.754;2023-02-12T06:06:29;100766.22;;;3.32;40.67
64616;BME280;51027;42.162;24.754;2023-02-12T06:08:55;100773.25;;;3.47;40.37
64616;BME280;51027;42.162;24.754;2023-02-12T06:11:21;100772.44;;;3.50;40.32
64616;BME280;51027;42.162;24.754;2023-02-12T06:13:47;100777.66;;;3.54;40.37
64616;BME280;51027;42.162;24.754;2023-02-12T06:16:25;100782.13;;;3.72;40.50
64616;BME280;51027;42.162;24.754;2023-02-12T06:18:51;100746.47;;;3.60;40.46
64616;BME280;51027;42.162;24.754;2023-02-12T06:21:18;100772.56;;;3.72;40.67
64616;BME280;51027;42.162;24.754;2023-02-12T06:23:45;100763.03;;;3.73;40.67
64616;BME280;51027;42.162;24.754;2023-02-12T06:26:10;100764.81;;;3.80;40.50
64616;BME280;51027;42.162;24.754;2023-02-12T06:28:36;100766.56;;;3.86;40.62
64616;BME280;51027;42.162;24.754;2023-02-12T06:31:02;100770.94;;;3.96;40.45
64616;BME280;51027;42.162;24.754;2023-02-12T06:33:27;100764.00;;;3.98;40.38
64616;BME280;51027;42.162;24.754;2023-02-12T06:35:53;100766.66;;;4.05;40.21
64616;BME280;51027;42.162;24.754;2023-02-12T06:38:18;100767.56;;;4.12;40.25
64616;BME280;51027;42.162;24.754;2023-02-12T06:40:44;100777.13;;;4.16;40.33
64616;BME280;51027;42.162;24.754;2023-02-12T06:43:09;100771.09;;;4.22;40.45
64616;BME280;51027;42.162;24.754;2023-02-12T06:45:35;100772.00;;;4.30;40.13
64616;BME280;51027;42.162;24.754;2023-02-12T06:48:00;100760.69;;;4.32;40.26
64616;BME280;51027;42.162;24.754;2023-02-12T06:50:26;100780.72;;;4.47;40.18
64616;BME280;51027;42.162;24.754;2023-02-12T06:52:51;100765.91;;;4.39;39.93
64616;BME280;51027;42.162;24.754;2023-02-12T06:55:17;100784.22;;;4.54;40.11
64616;BME280;51027;42.162;24.754;2023-02-12T06:57:42;100782.50;;;4.60;40.08
64616;BME280;51027;42.162;24.754;2023-02-12T07:00:08;100787.72;;;4.60;40.28
64616;BME280;51027;42.162;24.754;2023-02-12T07:02:34;100784.31;;;4.81;40.05
64616;BME280;51027;42.162;24.754;2023-02-12T07:04:59;100793.00;;;4.80;40.34
64616;BME280;51027;42.162;24.754;2023-02-12T07:07:24;100796.44;;;4.76;40.47
64616;BME280;51027;42.162;24.754;2023-02-12T07:09:50;100782.56;;;4.80;40.56
64616;BME280;51027;42.162;24.754;2023-02-12T07:12:15;100788.66;;;4.82;41.33
64616;BME280;51027;42.162;24.754;2023-02-12T07:14:41;100797.38;;;5.12;41.14
64616;BME280;51027;42.162;24.754;2023-02-12T07:17:06;100779.97;;;5.11;41.05
64616;BME280;51027;42.162;24.754;2023-02-12T07:19:34;100770.41;;;5.11;41.33
64616;BME280;51027;42.162;24.754;2023-02-12T07:21:59;100773.03;;;5.22;41.45
64616;BME280;51027;42.162;24.754;2023-02-12T07:24:25;100778.22;;;5.30;41.56
64616;BME280;51027;42.162;24.754;2023-02-12T07:26:50;100806.06;;;5.41;41.53
64616;BME280;51027;42.162;24.754;2023-02-12T07:29:16;100786.06;;;5.34;41.66
64616;BME280;51027;42.162;24.754;2023-02-12T07:31:41;100793.91;;;5.37;41.83
64616;BME280;51027;42.162;24.754;2023-02-12T07:34:09;100771.25;;;5.30;41.77
64616;BME280;51027;42.162;24.754;2023-02-12T07:36:35;100790.44;;;5.23;42.01
64616;BME280;51027;42.162;24.754;2023-02-12T07:39:00;100785.19;;;5.40;41.73
64616;BME280;51027;42.162;24.754;2023-02-12T07:41:28;100793.88;;;5.31;41.98
64616;BME280;51027;42.162;24.754;2023-02-12T07:43:56;100768.66;;;5.18;42.23
64616;BME280;51027;42.162;24.754;2023-02-12T07:46:25;100778.22;;;5.36;42.17
64616;BME280;51027;42.162;24.754;2023-02-12T07:48:54;100795.63;;;5.46;42.04
64616;BME280;51027;42.162;24.754;2023-02-12T07:51:20;100784.28;;;5.70;41.50
64616;BME280;51027;42.162;24.754;2023-02-12T07:53:47;100737.28;;;5.48;41.64
64616;BME280;51027;42.162;24.754;2023-02-12T07:56:19;100733.78;;;5.63;41.15
64616;BME280;51027;42.162;24.754;2023-02-12T07:58:46;100803.41;;;6.01;41.02
64616;BME280;51027;42.162;24.754;2023-02-12T08:03:43;100780.75;;;6.01;41.26
64616;BME280;51027;42.162;24.754;2023-02-12T08:06:11;100804.28;;;5.86;41.66
64616;BME280;51027;42.162;24.754;2023-02-12T08:08:38;100821.75;;;5.61;42.30
64616;BME280;51027;42.162;24.754;2023-02-12T08:11:10;100813.06;;;5.62;42.37
64616;BME280;51027;42.162;24.754;2023-02-12T08:13:36;100815.63;;;5.76;42.22
64616;BME280;51027;42.162;24.754;2023-02-12T08:16:08;100819.97;;;6.00;42.00
64616;BME280;51027;42.162;24.754;2023-02-12T08:18:34;100813.00;;;5.85;42.25
64616;BME280;51027;42.162;24.754;2023-02-12T08:23:32;100832.16;;;6.02;42.89
64616;BME280;51027;42.162;24.754;2023-02-12T08:28:33;100837.41;;;6.05;43.18
64616;BME280;51027;42.162;24.754;2023-02-12T08:31:11;100844.34;;;6.11;43.81
64616;BME280;51027;42.162;24.754;2023-02-12T08:33:37;100842.53;;;6.38;43.29
64616;BME280;51027;42.162;24.754;2023-02-12T08:36:11;100847.78;;;6.30;43.83
64616;BME280;51027;42.162;24.754;2023-02-12T08:38:37;100837.25;;;6.51;43.35
64616;BME280;51027;42.162;24.754;2023-02-12T08:41:06;100855.34;;;6.92;43.07
64616;BME280;51027;42.162;24.754;2023-02-12T08:43:32;100842.63;;;7.66;41.92
64616;BME280;51027;42.162;24.754;2023-02-12T08:46:05;100859.16;;;8.59;40.17
64616;BME280;51027;42.162;24.754;2023-02-12T08:48:31;100865.06;;;7.95;41.61
64616;BME280;51027;42.162;24.754;2023-02-12T08:53:33;100865.41;;;7.57;43.22
64616;BME280;51027;42.162;24.754;2023-02-12T08:55:59;100867.63;;;6.87;45.22
64616;BME280;51027;42.162;24.754;2023-02-12T08:58:24;100870.28;;;6.74;45.84
64616;BME280;51027;42.162;24.754;2023-02-12T09:00:50;100873.88;;;6.54;46.77
64616;BME280;51027;42.162;24.754;2023-02-12T09:03:15;100877.44;;;6.37;47.51
64616;BME280;51027;42.162;24.754;2023-02-12T09:05:41;100885.28;;;6.38;47.93
64616;BME280;51027;42.162;24.754;2023-02-12T09:08:06;100882.72;;;6.06;48.76
64616;BME280;51027;42.162;24.754;2023-02-12T09:10:33;100885.34;;;6.14;48.85
64616;BME280;51027;42.162;24.754;2023-02-12T09:12:59;100862.69;;;6.06;49.00
64616;BME280;51027;42.162;24.754;2023-02-12T09:15:24;100888.81;;;6.16;48.96
64616;BME280;51027;42.162;24.754;2023-02-12T09:17:49;100863.50;;;6.21;48.39
64616;BME280;51027;42.162;24.754;2023-02-12T09:20:15;100885.03;;;6.96;47.36
64616;BME280;51027;42.162;24.754;2023-02-12T09:22:40;100883.22;;;7.04;46.94
64616;BME280;51027;42.162;24.754;2023-02-12T09:25:06;100889.34;;;7.03;46.72
64616;BME280;51027;42.162;24.754;2023-02-12T09:27:31;100846.75;;;6.69;46.93
64616;BME280;51027;42.162;24.754;2023-02-12T09:29:57;100896.06;;;7.47;46.25
64616;BME280;51027;42.162;24.754;2023-02-12T09:32:22;100904.50;;;7.87;45.49
64616;BME280;51027;42.162;24.754;2023-02-12T09:34:48;100895.69;;;8.79;43.27
64616;BME280;51027;42.162;24.754;2023-02-12T09:37:13;100901.53;;;9.01;42.26
64616;BME280;51027;42.162;24.754;2023-02-12T09:39:38;100895.78;;;9.34;41.61
64616;BME280;51027;42.162;24.754;2023-02-12T09:52:54;100895.47;;;8.16;43.78
64616;BME280;51027;42.162;24.754;2023-02-12T09:55:25;100894.59;;;8.93;42.23
64616;BME280;51027;42.162;24.754;2023-02-12T09:57:51;100893.72;;;10.05;40.05
64616;BME280;51027;42.162;24.754;2023-02-12T10:00:21;100887.78;;;9.94;39.76
64616;BME280;51027;42.162;24.754;2023-02-12T10:02:50;100878.25;;;13.18;33.95
64616;BME280;51027;42.162;24.754;2023-02-12T10:05:19;100880.88;;;14.52;32.47
64616;BME280;51027;42.162;24.754;2023-02-12T10:11:14;100882.31;;;16.56;27.94
64616;BME280;51027;42.162;24.754;2023-02-12T10:14:13;100873.88;;;18.81;25.23
64616;BME280;51027;42.162;24.754;2023-02-12T10:24:51;100874.38;;;15.94;27.97
64616;BME280;51027;42.162;24.754;2023-02-12T10:27:37;100875.47;;;17.09;26.96
64616;BME280;51027;42.162;24.754;2023-02-12T10:30:13;100855.00;;;20.23;23.42
64616;BME280;51027;42.162;24.754;2023-02-12T10:32:42;100870.31;;;19.91;22.88
64616;BME280;51027;42.162;24.754;2023-02-12T10:35:17;100867.22;;;20.57;23.09
64616;BME280;51027;42.162;24.754;2023-02-12T10:37:51;100873.44;;;20.57;22.86
64616;BME280;51027;42.162;24.754;2023-02-12T10:40:25;100849.03;;;18.30;25.21
64616;BME280;51027;42.162;24.754;2023-02-12T10:42:56;100871.25;;;18.46;25.58
64616;BME280;51027;42.162;24.754;2023-02-12T10:45:34;100867.28;;;15.74;27.98
64616;BME280;51027;42.162;24.754;2023-02-12T10:48:10;100877.34;;;15.44;28.99
64616;BME280;51027;42.162;24.754;2023-02-12T10:53:23;100866.50;;;19.02;23.82
64616;BME280;51027;42.162;24.754;2023-02-12T11:01:37;100876.25;;;17.66;26.22
64616;BME280;51027;42.162;24.754;2023-02-12T11:04:28;100888.91;;;16.07;27.61
64616;BME280;51027;42.162;24.754;2023-02-12T11:07:03;100880.00;;;16.08;28.07
64616;BME280;51027;42.162;24.754;2023-02-12T11:09:35;100879.28;;;14.47;29.23
64616;BME280;51027;42.162;24.754;2023-02-12T11:12:27;100866.47;;;15.72;28.23
64616;BME280;51027;42.162;24.754;2023-02-12T11:14:57;100889.44;;;14.34;30.42
64616;BME280;51027;42.162;24.754;2023-02-12T11:17:36;100891.38;;;12.62;32.53
64616;BME280;51027;42.162;24.754;2023-02-12T11:22:56;100902.66;;;11.67;34.50
64616;BME280;51027;42.162;24.754;2023-02-12T11:25:25;100894.97;;;10.79;35.88
64616;BME280;51027;42.162;24.754;2023-02-12T11:28:16;100897.06;;;10.63;36.30
64616;BME280;51027;42.162;24.754;2023-02-12T11:30:51;100897.41;;;10.46;36.38
64616;BME280;51027;42.162;24.754;2023-02-12T11:35:57;100878.66;;;11.77;34.77
64616;BME280;51027;42.162;24.754;2023-02-12T11:38:27;100903.19;;;12.49;33.44
64616;BME280;51027;42.162;24.754;2023-02-12T11:40:57;100901.91;;;11.99;34.12
64616;BME280;51027;42.162;24.754;2023-02-12T11:43:23;100903.09;;;11.48;34.72
64616;BME280;51027;42.162;24.754;2023-02-12T11:45:50;100895.63;;;11.67;34.64
64616;BME280;51027;42.162;24.754;2023-02-12T11:48:37;100900.53;;;11.82;34.49
64616;BME280;51027;42.162;24.754;2023-02-12T11:51:06;100890.31;;;11.69;34.32
64616;BME280;51027;42.162;24.754;2023-02-12T11:53:40;100893.16;;;11.97;34.26
64616;BME280;51027;42.162;24.754;2023-02-12T11:56:09;100891.47;;;11.57;34.68
64616;BME280;51027;42.162;24.754;2023-02-12T11:58:35;100888.72;;;10.84;35.91
64616;BME280;51027;42.162;24.754;2023-02-12T12:01:13;100888.56;;;10.90;36.10
64616;BME280;51027;42.162;24.754;2023-02-12T12:06:22;100896.94;;;11.11;35.49
64616;BME280;51027;42.162;24.754;2023-02-12T12:14:20;100900.66;;;12.12;34.11
64616;BME280;51027;42.162;24.754;2023-02-12T12:16:55;100875.34;;;13.27;32.62
64616;BME280;51027;42.162;24.754;2023-02-12T12:19:53;100889.97;;;12.80;33.63
64616;BME280;51027;42.162;24.754;2023-02-12T12:27:37;100877.16;;;11.30;35.13
64616;BME280;51027;42.162;24.754;2023-02-12T12:33:19;100907.47;;;10.69;36.78
64616;BME280;51027;42.162;24.754;2023-02-12T12:52:06;100930.84;;;9.33;38.83
64616;BME280;51027;42.162;24.754;2023-02-12T13:10:58;100946.53;;;9.96;38.47
64616;BME280;51027;42.162;24.754;2023-02-12T13:13:31;100942.16;;;9.95;38.42
64616;BME280;51027;42.162;24.754;2023-02-12T13:16:19;100939.19;;;9.63;39.22
64616;BME280;51027;42.162;24.754;2023-02-12T13:24:45;100949.63;;;9.06;40.10
64616;BME280;51027;42.162;24.754;2023-02-12T13:27:21;100970.63;;;9.07;40.35
64616;BME280;51027;42.162;24.754;2023-02-12T13:30:04;100951.47;;;8.96;40.37
64616;BME280;51027;42.162;24.754;2023-02-12T13:32:43;100977.13;;;8.74;41.16
64616;BME280;51027;42.162;24.754;2023-02-12T13:35:29;100972.34;;;9.10;40.12
64616;BME280;51027;42.162;24.754;2023-02-12T13:37:56;100983.88;;;8.97;40.58
64616;BME280;51027;42.162;24.754;2023-02-12T13:40:24;100982.66;;;9.25;40.22
64616;BME280;51027;42.162;24.754;2023-02-12T13:48:46;100991.38;;;9.30;40.08
64616;BME280;51027;42.162;24.754;2023-02-12T13:51:32;100981.84;;;9.21;40.69
64616;BME280;51027;42.162;24.754;2023-02-12T13:57:12;100975.78;;;9.15;40.65
64616;BME280;51027;42.162;24.754;2023-02-12T13:59:51;100990.28;;;9.45;40.29
64616;BME280;51027;42.162;24.754;2023-02-12T14:04:58;100998.53;;;9.16;40.75
64616;BME280;51027;42.162;24.754;2023-02-12T14:07:41;101001.16;;;9.16;40.79
64616;BME280;51027;42.162;24.754;2023-02-12T14:10:14;101008.25;;;9.11;40.83
64616;BME280;51027;42.162;24.754;2023-02-12T14:12:43;101004.81;;;9.06;41.17
64616;BME280;51027;42.162;24.754;2023-02-12T14:15:31;101014.56;;;8.94;41.29
64616;BME280;51027;42.162;24.754;2023-02-12T14:20:29;101020.13;;;8.65;41.72
64616;BME280;51027;42.162;24.754;2023-02-12T14:25:44;101033.34;;;8.56;42.89
64616;BME280;51027;42.162;24.754;2023-02-12T14:28:21;101015.03;;;8.50;42.98
64616;BME280;51027;42.162;24.754;2023-02-12T14:33:46;100977.88;;;7.93;43.94
64616;BME280;51027;42.162;24.754;2023-02-12T14:36:17;101043.28;;;8.18;44.54
64616;BME280;51027;42.162;24.754;2023-02-12T14:49:25;101080.97;;;8.04;45.55
64616;BME280;51027;42.162;24.754;2023-02-12T14:57:08;101098.53;;;7.93;46.46
64616;BME280;51027;42.162;24.754;2023-02-12T14:59:40;101113.50;;;7.74;46.91
64616;BME280;51027;42.162;24.754;2023-02-12T15:02:16;101108.31;;;7.64;47.17
64616;BME280;51027;42.162;24.754;2023-02-12T15:04:46;101119.66;;;7.70;47.04
64616;BME280;51027;42.162;24.754;2023-02-12T15:07:47;101127.50;;;7.70;47.36
64616;BME280;51027;42.162;24.754;2023-02-12T15:10:20;101107.47;;;7.57;47.13
64616;BME280;51027;42.162;24.754;2023-02-12T15:15:38;101131.09;;;7.51;47.72
64616;BME280;51027;42.162;24.754;2023-02-12T15:18:16;101140.63;;;7.64;47.60
64616;BME280;51027;42.162;24.754;2023-02-12T15:20:49;101141.50;;;7.63;47.73
64616;BME280;51027;42.162;24.754;2023-02-12T15:23:39;101144.97;;;7.77;47.48
64616;BME280;51027;42.162;24.754;2023-02-12T15:26:08;101140.72;;;7.49;47.83
64616;BME280;51027;42.162;24.754;2023-02-12T15:28:36;101151.16;;;7.61;47.97
64616;BME280;51027;42.162;24.754;2023-02-12T15:31:04;101149.44;;;7.49;48.26
64616;BME280;51027;42.162;24.754;2023-02-12T15:33:38;101165.13;;;7.56;48.33
64616;BME280;51027;42.162;24.754;2023-02-12T15:36:07;101176.56;;;7.39;48.41
64616;BME280;51027;42.162;24.754;2023-02-12T15:38:39;101152.94;;;7.44;48.53
64616;BME280;51027;42.162;24.754;2023-02-12T15:41:08;101180.03;;;7.44;48.66
64616;BME280;51027;42.162;24.754;2023-02-12T15:43:47;101167.84;;;7.28;48.69
64616;BME280;51027;42.162;24.754;2023-02-12T15:46:16;101197.50;;;7.42;48.64
64616;BME280;51027;42.162;24.754;2023-02-12T15:48:43;101196.66;;;7.37;49.01
64616;BME280;51027;42.162;24.754;2023-02-12T15:51:32;101171.38;;;7.16;48.97
64616;BME280;51027;42.162;24.754;2023-02-12T15:53:59;101210.66;;;7.22;49.53
64616;BME280;51027;42.162;24.754;2023-02-12T15:56:28;101209.75;;;7.33;49.18
64616;BME280;51027;42.162;24.754;2023-02-12T15:58:58;101200.19;;;7.18;49.40